createdAt,value
2023-01-17T00:02:03.144Z,0.50
2023-01-17T00:04:49.593Z,0.40
2023-01-17T00:07:37.526Z,0.50
2023-01-17T00:10:08.840Z,0.65
2023-01-17T00:12:36.551Z,2.15
2023-01-17T00:15:04.319Z,0.47
2023-01-17T00:17:31.834Z,0.70
2023-01-17T00:20:20.031Z,0.50
2023-01-17T00:23:06.088Z,0.60
2023-01-17T00:25:57.410Z,0.60
2023-01-17T00:28:25.574Z,0.50
2023-01-17T00:30:52.835Z,0.50
2023-01-17T00:33:21.127Z,0.60
2023-01-17T00:35:48.546Z,0.50
2023-01-17T00:38:20.785Z,0.50
2023-01-17T00:40:48.432Z,0.43
2023-01-17T00:43:37.882Z,0.50
2023-01-17T00:46:24.112Z,0.50
2023-01-17T00:49:10.032Z,0.60
2023-01-17T00:51:56.811Z,0.55
2023-01-17T00:54:42.674Z,0.40
2023-01-17T00:57:28.559Z,0.80
2023-01-17T01:00:14.545Z,0.40
2023-01-17T01:03:00.576Z,0.50
2023-01-17T01:05:46.916Z,0.60
2023-01-17T01:08:43.899Z,0.45
2023-01-17T01:11:32.799Z,0.50
2023-01-17T01:14:19.225Z,0.47
2023-01-17T01:17:05.726Z,0.30
2023-01-17T01:19:51.517Z,0.47
2023-01-17T01:22:37.373Z,0.40
2023-01-17T01:25:23.698Z,0.50
2023-01-17T01:28:09.531Z,0.40
2023-01-17T01:30:55.586Z,0.40
2023-01-17T01:33:22.825Z,0.52
2023-01-17T01:35:54.888Z,0.60
2023-01-17T01:38:24.213Z,0.40
2023-01-17T01:40:55.781Z,0.38
2023-01-17T01:43:45.051Z,0.40
2023-01-17T01:46:24.548Z,0.50
2023-01-17T01:49:05.388Z,0.60
2023-01-17T01:51:41.016Z,0.45
2023-01-17T01:54:16.682Z,0.32
2023-01-17T01:56:45.154Z,0.40
2023-01-17T01:59:18.385Z,0.50
2023-01-17T02:01:45.803Z,0.40
2023-01-17T02:04:13.772Z,0.38
2023-01-17T02:06:55.503Z,0.50
2023-01-17T02:09:23.142Z,0.40
2023-01-17T02:11:50.739Z,0.40
2023-01-17T02:14:20.300Z,0.40
2023-01-17T02:17:12.837Z,0.50
2023-01-17T02:20:06.515Z,0.40
2023-01-17T02:22:51.402Z,0.35
2023-01-17T02:25:46.086Z,0.50
2023-01-17T02:28:44.059Z,0.50
2023-01-17T02:31:21.332Z,0.50
2023-01-17T02:34:31.454Z,0.50
2023-01-17T02:37:09.325Z,0.52
2023-01-17T02:39:59.709Z,0.40
2023-01-17T02:44:57.696Z,0.30
2023-01-17T02:47:27.637Z,0.55
2023-01-17T02:50:32.021Z,0.60
2023-01-17T02:53:14.195Z,0.60
2023-01-17T02:55:50.133Z,0.57
2023-01-17T02:58:30.993Z,0.70
2023-01-17T03:01:33.923Z,0.73
2023-01-17T03:04:18.157Z,0.50
2023-01-17T03:06:54.236Z,0.82
2023-01-17T03:09:22.054Z,0.75
2023-01-17T03:11:49.394Z,0.90
2023-01-17T03:14:16.634Z,0.70
2023-01-17T03:16:44.059Z,0.60
2023-01-17T03:19:11.450Z,0.70
2023-01-17T03:21:38.772Z,0.50
2023-01-17T03:24:05.931Z,0.57
2023-01-17T03:26:33.242Z,0.40
2023-01-17T03:29:00.483Z,0.50
2023-01-17T03:31:27.788Z,0.60
2023-01-17T03:33:55.044Z,0.50
2023-01-17T03:36:22.341Z,0.50
2023-01-17T03:38:49.602Z,0.60
2023-01-17T03:41:17.050Z,0.70
2023-01-17T03:43:44.338Z,0.50
2023-01-17T03:46:25.353Z,0.65
2023-01-17T03:48:52.852Z,0.40
2023-01-17T03:51:20.167Z,0.70
2023-01-17T03:53:47.887Z,0.60
2023-01-17T03:56:15.401Z,0.50
2023-01-17T03:58:42.877Z,0.60
2023-01-17T04:01:10.258Z,0.82
2023-01-17T04:03:37.583Z,0.55
2023-01-17T04:06:04.913Z,0.73
2023-01-17T04:08:32.275Z,0.70
2023-01-17T04:10:59.699Z,0.50
2023-01-17T04:13:26.953Z,0.80
2023-01-17T04:15:54.210Z,0.60
2023-01-17T04:18:26.107Z,0.43
2023-01-17T04:20:53.406Z,0.50
2023-01-17T04:23:20.666Z,0.70
2023-01-17T04:25:47.963Z,0.40
2023-01-17T04:28:15.211Z,0.70
2023-01-17T04:30:42.472Z,0.50
2023-01-17T04:33:09.787Z,0.73
2023-01-17T04:35:37.148Z,0.50
2023-01-17T04:38:04.784Z,0.65
2023-01-17T04:40:32.131Z,0.55
2023-01-17T04:42:59.648Z,0.40
2023-01-17T04:45:26.951Z,0.73
2023-01-17T04:47:54.306Z,0.50
2023-01-17T04:50:21.785Z,0.60
2023-01-17T04:52:49.057Z,0.52
2023-01-17T04:55:16.417Z,0.43
2023-01-17T04:57:43.686Z,0.55
2023-01-17T05:00:11.742Z,0.40
2023-01-17T05:02:39.061Z,0.40
2023-01-17T05:05:07.354Z,0.50
2023-01-17T05:07:35.804Z,0.60
2023-01-17T05:10:04.541Z,0.60
2023-01-17T05:12:31.936Z,0.50
2023-01-17T05:14:59.219Z,0.50
2023-01-17T05:17:26.815Z,0.40
2023-01-17T05:19:54.160Z,0.40
2023-01-17T05:25:05.500Z,0.60
2023-01-17T05:27:32.767Z,0.50
2023-01-17T05:29:59.991Z,0.60
2023-01-17T05:32:27.492Z,0.40
2023-01-17T05:34:54.953Z,0.60
2023-01-17T05:37:22.214Z,0.55
2023-01-17T05:39:49.467Z,0.40
2023-01-17T05:42:16.801Z,0.50
2023-01-17T05:44:44.133Z,0.47
2023-01-17T05:47:11.643Z,0.60
2023-01-17T05:49:39.379Z,0.50
2023-01-17T05:52:08.505Z,0.60
2023-01-17T05:54:36.000Z,0.52
2023-01-17T05:57:03.294Z,0.40
2023-01-17T05:59:37.095Z,0.60
2023-01-17T06:02:05.038Z,1.02
2023-01-17T06:04:33.254Z,0.45
2023-01-17T06:07:00.746Z,0.70
2023-01-17T06:09:27.705Z,0.70
2023-01-17T06:11:54.995Z,0.43
2023-01-17T06:14:22.291Z,0.82
2023-01-17T06:16:49.677Z,0.50
2023-01-17T06:19:16.920Z,0.30
2023-01-17T06:21:44.203Z,0.75
2023-01-17T06:24:11.479Z,0.68
2023-01-17T06:26:38.983Z,0.40
2023-01-17T06:29:06.303Z,0.30
2023-01-17T06:31:33.720Z,0.40
2023-01-17T06:34:03.444Z,0.30
2023-01-17T06:36:32.384Z,0.38
2023-01-17T06:38:59.649Z,0.40
2023-01-17T06:41:26.976Z,0.35
2023-01-17T06:43:54.636Z,0.30
2023-01-17T06:46:23.196Z,0.40
2023-01-17T06:48:50.732Z,0.50
2023-01-17T06:51:18.160Z,0.30
2023-01-17T06:53:45.505Z,0.40
2023-01-17T06:56:12.782Z,0.30
2023-01-17T06:58:40.037Z,0.30
2023-01-17T07:01:12.709Z,0.25
2023-01-17T07:03:40.299Z,0.40
2023-01-17T07:06:09.577Z,0.30
2023-01-17T07:08:37.004Z,0.50
2023-01-17T07:11:07.908Z,0.20
2023-01-17T07:13:36.486Z,0.30
2023-01-17T07:16:05.343Z,0.30
2023-01-17T07:18:33.125Z,0.30
2023-01-17T07:21:00.476Z,0.32
2023-01-17T07:23:27.768Z,0.30
2023-01-17T07:25:56.821Z,0.30
2023-01-17T07:28:25.256Z,0.30
2023-01-17T07:30:52.682Z,0.40
2023-01-17T07:33:19.984Z,0.30
2023-01-17T07:35:48.440Z,0.40
2023-01-17T07:38:19.686Z,0.30
2023-01-17T07:40:47.035Z,0.30
2023-01-17T07:43:14.360Z,0.20
2023-01-17T07:45:47.027Z,0.20
2023-01-17T07:48:14.363Z,0.30
2023-01-17T07:50:41.795Z,0.40
2023-01-17T07:53:09.236Z,0.30
2023-01-17T07:55:36.651Z,0.40
2023-01-17T07:58:03.963Z,0.20
2023-01-17T08:00:31.231Z,0.35
2023-01-17T08:02:58.874Z,0.30
2023-01-17T08:05:26.708Z,0.30
2023-01-17T08:07:54.016Z,0.40
2023-01-17T08:10:21.729Z,0.22
2023-01-17T08:12:49.991Z,0.70
2023-01-17T08:15:18.146Z,0.50
2023-01-17T08:17:49.731Z,0.43
2023-01-17T08:20:17.417Z,0.63
2023-01-17T08:22:44.724Z,0.50
2023-01-17T08:25:12.703Z,0.40
2023-01-17T08:27:40.026Z,0.60
2023-01-17T08:30:08.412Z,0.60
2023-01-17T08:32:35.812Z,0.55
2023-01-17T08:35:03.072Z,0.95
2023-01-17T08:37:30.338Z,0.50
2023-01-17T08:39:57.625Z,0.80
2023-01-17T08:42:24.960Z,0.70
2023-01-17T08:44:52.188Z,0.80
2023-01-17T08:47:19.464Z,0.90
2023-01-17T08:49:46.739Z,0.80
2023-01-17T08:52:14.537Z,0.70
2023-01-17T08:54:41.859Z,0.63
2023-01-17T08:57:10.453Z,0.77
2023-01-17T08:59:37.688Z,0.60
2023-01-17T09:02:14.785Z,0.70
2023-01-17T09:04:49.452Z,0.95
2023-01-17T09:07:18.527Z,0.90
2023-01-17T09:09:46.441Z,1.02
2023-01-17T09:12:13.738Z,1.10
2023-01-17T09:14:41.102Z,1.00
2023-01-17T09:17:08.452Z,1.05
2023-01-17T09:19:35.791Z,0.90
2023-01-17T09:22:05.509Z,0.90
2023-01-17T09:24:33.409Z,0.80
2023-01-17T09:27:00.994Z,0.80
2023-01-17T09:29:28.733Z,0.95
2023-01-17T09:31:56.027Z,1.35
2023-01-17T09:34:24.311Z,1.00
2023-01-17T09:36:51.629Z,1.40
2023-01-17T09:39:19.028Z,1.13
2023-01-17T09:42:16.278Z,1.35
2023-01-17T09:44:54.463Z,1.38
2023-01-17T09:47:47.795Z,1.13
2023-01-17T09:50:26.718Z,1.10
2023-01-17T09:53:01.295Z,1.30
2023-01-17T09:55:55.560Z,1.08
2023-01-17T09:58:22.932Z,1.55
2023-01-17T10:00:55.882Z,1.15
2023-01-17T10:03:35.666Z,1.13
2023-01-17T10:06:17.659Z,0.85
2023-01-17T10:08:45.039Z,1.13
2023-01-17T10:11:30.075Z,1.08
2023-01-17T10:13:57.378Z,0.90
2023-01-17T10:16:40.572Z,1.10
2023-01-17T10:19:34.770Z,0.82
2023-01-17T10:22:40.691Z,1.27
2023-01-17T10:25:39.280Z,1.33
2023-01-17T10:28:17.178Z,1.50
2023-01-17T10:30:51.152Z,1.73
2023-01-17T10:33:35.402Z,1.10
2023-01-17T10:36:08.923Z,1.30
2023-01-17T10:38:38.663Z,1.50
2023-01-17T10:41:08.388Z,1.70
2023-01-17T10:43:44.472Z,1.88
2023-01-17T10:46:18.963Z,2.03
2023-01-17T10:48:50.266Z,1.33
2023-01-17T10:51:35.278Z,1.40
2023-01-17T10:54:24.267Z,1.30
2023-01-17T10:56:51.219Z,1.38
2023-01-17T10:59:31.998Z,1.73
2023-01-17T11:01:59.529Z,1.27
2023-01-17T11:04:38.336Z,1.30
2023-01-17T11:07:20.702Z,1.27
2023-01-17T11:09:55.214Z,1.73
2023-01-17T11:12:34.892Z,1.73
2023-01-17T11:15:17.881Z,1.40
2023-01-17T11:18:15.931Z,2.33
2023-01-17T11:20:43.411Z,1.30
2023-01-17T11:23:15.782Z,1.10
2023-01-17T11:25:51.024Z,1.23
2023-01-17T11:28:26.524Z,1.70
2023-01-17T11:30:59.235Z,0.90
2023-01-17T11:33:45.394Z,1.42
2023-01-17T11:36:27.978Z,1.30
2023-01-17T11:39:30.409Z,1.33
2023-01-17T11:41:57.663Z,1.50
2023-01-17T11:44:30.435Z,1.80
2023-01-17T11:47:23.871Z,1.92
2023-01-17T11:49:51.210Z,1.45
2023-01-17T11:52:32.372Z,1.63
2023-01-17T11:54:59.832Z,2.00
2023-01-17T11:57:31.203Z,1.52
2023-01-17T12:00:24.863Z,1.58
2023-01-17T12:03:20.127Z,1.40
2023-01-17T12:06:08.517Z,0.85
2023-01-17T12:09:22.993Z,2.35
2023-01-17T12:12:23.542Z,1.58
2023-01-17T12:15:23.258Z,1.30
2023-01-17T12:18:26.300Z,1.17
2023-01-17T12:21:21.995Z,1.05
2023-01-17T12:23:56.008Z,0.80
2023-01-17T12:26:53.338Z,1.30
2023-01-17T12:29:35.040Z,1.30
2023-01-17T12:32:26.159Z,1.20
2023-01-17T12:35:01.757Z,1.30
2023-01-17T12:37:39.673Z,1.33
2023-01-17T12:40:46.130Z,1.50
2023-01-17T12:43:33.794Z,1.33
2023-01-17T12:46:05.586Z,1.58
2023-01-17T12:48:37.508Z,1.40
2023-01-17T12:51:20.176Z,1.80
2023-01-17T12:54:04.409Z,1.60
2023-01-17T12:56:40.905Z,1.27
2023-01-17T12:59:29.439Z,1.38
2023-01-17T13:01:59.573Z,1.65
2023-01-17T13:04:26.561Z,1.35
2023-01-17T13:06:59.977Z,1.90
2023-01-17T13:09:39.554Z,1.58
2023-01-17T13:12:12.497Z,1.88
2023-01-17T13:14:39.473Z,1.48
2023-01-17T13:17:45.027Z,1.70
2023-01-17T13:20:44.784Z,1.40
2023-01-17T13:23:40.154Z,1.48
2023-01-17T13:26:28.375Z,1.45
2023-01-17T13:29:04.534Z,1.45
2023-01-17T13:31:44.745Z,1.63
2023-01-17T13:34:17.528Z,1.50
2023-01-17T13:37:15.672Z,1.20
2023-01-17T13:40:04.187Z,1.63
2023-01-17T13:42:52.950Z,1.23
2023-01-17T13:45:23.024Z,1.33
2023-01-17T13:47:50.060Z,1.50
2023-01-17T13:50:45.784Z,1.50
2023-01-17T13:53:35.113Z,1.50
2023-01-17T13:56:02.384Z,1.23
2023-01-17T13:58:30.272Z,2.22
2023-01-17T14:00:57.583Z,1.73
2023-01-17T14:03:46.558Z,1.60
2023-01-17T14:06:37.186Z,1.35
2023-01-17T14:09:13.396Z,1.48
2023-01-17T14:12:07.646Z,1.75
2023-01-17T14:14:47.903Z,1.35
2023-01-17T14:17:25.596Z,1.90
2023-01-17T14:20:19.639Z,1.52
2023-01-17T14:23:01.449Z,1.65
2023-01-17T14:25:39.188Z,1.42
2023-01-17T14:28:31.961Z,1.60
2023-01-17T14:31:01.002Z,1.05
2023-01-17T14:33:36.536Z,1.98
2023-01-17T14:36:07.167Z,1.30
2023-01-17T14:38:40.877Z,1.25
2023-01-17T14:41:11.871Z,1.65
2023-01-17T14:43:42.861Z,1.45
2023-01-17T14:46:39.145Z,1.02
2023-01-17T14:49:20.221Z,1.45
2023-01-17T14:52:00.975Z,1.50
2023-01-17T14:54:28.268Z,1.40
2023-01-17T14:57:15.263Z,1.40
2023-01-17T14:59:42.611Z,1.40
2023-01-17T15:02:15.234Z,1.02
2023-01-17T15:04:42.942Z,1.77
2023-01-17T15:07:16.673Z,1.60
2023-01-17T15:09:45.044Z,1.45
2023-01-17T15:12:16.537Z,1.42
2023-01-17T15:14:46.766Z,1.70
2023-01-17T15:17:24.804Z,1.40
2023-01-17T15:20:01.758Z,1.75
2023-01-17T15:22:29.995Z,1.75
2023-01-17T15:24:58.582Z,1.65
2023-01-17T15:27:26.286Z,2.00
2023-01-17T15:29:54.562Z,1.13
2023-01-17T15:32:31.208Z,1.80
2023-01-17T15:34:59.469Z,1.42
2023-01-17T15:37:26.742Z,2.95
2023-01-17T15:40:03.669Z,1.40
2023-01-17T15:42:32.019Z,1.33
2023-01-17T15:45:03.394Z,1.70
2023-01-17T15:47:38.789Z,1.90
2023-01-17T15:50:21.180Z,1.92
2023-01-17T15:52:49.514Z,1.73
2023-01-17T15:55:22.537Z,1.60
2023-01-17T15:57:49.979Z,1.23
2023-01-17T16:00:22.347Z,1.90
2023-01-17T16:02:55.520Z,2.35
2023-01-17T16:05:23.395Z,3.13
2023-01-17T16:07:50.788Z,5.03
2023-01-17T16:10:38.023Z,4.60
2023-01-17T16:13:10.601Z,4.45
2023-01-17T16:15:38.547Z,3.75
2023-01-17T16:18:14.709Z,4.10
2023-01-17T16:21:01.248Z,4.43
2023-01-17T16:23:28.749Z,4.93
2023-01-17T16:25:56.065Z,4.18
2023-01-17T16:28:23.150Z,4.00
2023-01-17T16:30:50.516Z,3.97
2023-01-17T16:33:17.940Z,4.53
2023-01-17T16:35:45.202Z,4.90
2023-01-17T16:38:16.981Z,5.18
2023-01-17T16:40:45.773Z,4.75
2023-01-17T16:43:18.112Z,5.57
2023-01-17T16:45:52.110Z,4.47
2023-01-17T16:48:19.865Z,5.60
2023-01-17T16:50:51.009Z,5.18
2023-01-17T16:53:24.732Z,4.90
2023-01-17T16:55:57.079Z,5.45
2023-01-17T16:58:24.426Z,12.43
2023-01-17T17:00:52.194Z,14.05
2023-01-17T17:03:20.903Z,9.63
2023-01-17T17:06:01.023Z,8.23
2023-01-17T17:08:31.515Z,9.38
2023-01-17T17:11:14.404Z,17.77
2023-01-17T17:13:46.555Z,22.67
2023-01-17T17:16:26.777Z,16.45
2023-01-17T17:19:06.239Z,19.23
2023-01-17T17:21:35.062Z,18.20
2023-01-17T17:24:02.706Z,15.10
2023-01-17T17:26:35.981Z,12.88
2023-01-17T17:29:04.695Z,7.88
2023-01-17T17:31:32.296Z,7.57
2023-01-17T17:34:01.144Z,7.85
2023-01-17T17:36:28.715Z,8.57
2023-01-17T17:38:56.837Z,8.80
2023-01-17T17:41:26.630Z,9.98
2023-01-17T17:43:53.947Z,9.23
2023-01-17T17:46:25.523Z,8.23
2023-01-17T17:48:52.832Z,6.85
2023-01-17T17:51:32.796Z,7.95
2023-01-17T17:54:06.043Z,6.78
2023-01-17T17:56:33.659Z,5.43
2023-01-17T17:59:01.825Z,5.97
2023-01-17T18:01:30.043Z,5.57
2023-01-17T18:04:01.880Z,4.68
2023-01-17T18:06:29.568Z,6.75
2023-01-17T18:08:57.017Z,10.32
2023-01-17T18:11:26.316Z,9.18
2023-01-17T18:13:55.215Z,11.25
2023-01-17T18:16:25.431Z,6.43
2023-01-17T18:21:25.322Z,9.75
2023-01-17T18:24:01.119Z,12.35
2023-01-17T18:26:32.750Z,12.32
2023-01-17T18:29:00.819Z,12.15
2023-01-17T18:31:29.800Z,12.80
2023-01-17T18:33:59.524Z,21.65
2023-01-17T18:36:30.166Z,36.30
2023-01-17T18:38:57.583Z,24.98
2023-01-17T18:41:27.519Z,19.15
2023-01-17T18:43:58.163Z,13.27
2023-01-17T18:46:26.571Z,10.68
2023-01-17T18:48:57.183Z,9.20
2023-01-17T18:51:24.681Z,8.68
2023-01-17T18:53:53.055Z,10.02
2023-01-17T18:56:21.951Z,8.43
2023-01-17T18:58:50.114Z,8.20
2023-01-17T19:01:29.018Z,8.70
2023-01-17T19:03:57.988Z,7.65
2023-01-17T19:06:31.435Z,6.45
2023-01-17T19:08:59.142Z,6.30
2023-01-17T19:11:26.811Z,7.65
2023-01-17T19:13:54.428Z,7.13
2023-01-17T19:16:24.776Z,6.70
2023-01-17T19:18:52.774Z,5.82
2023-01-17T19:21:23.007Z,7.45
2023-01-17T19:26:20.124Z,5.88
2023-01-17T19:28:55.780Z,6.85
2023-01-17T19:31:25.762Z,6.60
2023-01-17T19:33:56.005Z,10.82
2023-01-17T19:36:25.756Z,13.50
2023-01-17T19:39:04.003Z,9.43
2023-01-17T19:41:32.543Z,8.35
2023-01-17T19:44:06.055Z,8.63
2023-01-17T19:46:33.457Z,8.82
2023-01-17T19:49:00.879Z,7.80
2023-01-17T19:51:44.234Z,7.47
2023-01-17T19:54:15.245Z,7.55
2023-01-17T19:56:44.289Z,8.60
2023-01-17T19:59:14.207Z,7.88
2023-01-17T20:01:41.738Z,7.85
2023-01-17T20:04:09.081Z,7.70
2023-01-17T20:06:36.902Z,8.93
2023-01-17T20:09:05.420Z,6.05
2023-01-17T20:11:32.940Z,8.68
2023-01-17T20:14:00.552Z,8.90
2023-01-17T20:16:30.365Z,9.30
2023-01-17T20:18:58.205Z,9.35
2023-01-17T20:21:27.258Z,11.23
2023-01-17T20:23:56.209Z,14.40
2023-01-17T20:26:35.154Z,16.52
2023-01-17T20:29:10.153Z,16.88
2023-01-17T20:31:38.722Z,15.23
2023-01-17T20:34:06.941Z,14.15
2023-01-17T20:36:34.364Z,16.30
2023-01-17T20:39:03.836Z,15.15
2023-01-17T20:41:32.460Z,16.35
2023-01-17T20:44:00.881Z,14.65
2023-01-17T20:46:35.370Z,13.73
2023-01-17T20:49:05.460Z,12.48
2023-01-17T20:51:38.423Z,11.43
2023-01-17T20:54:05.715Z,10.30
2023-01-17T20:56:37.813Z,10.98
2023-01-17T20:59:07.695Z,12.70
2023-01-17T21:01:35.186Z,15.35
2023-01-17T21:04:03.259Z,18.80
2023-01-17T21:06:30.740Z,13.70
2023-01-17T21:08:59.826Z,9.45
2023-01-17T21:11:30.661Z,7.78
2023-01-17T21:14:02.953Z,6.45
2023-01-17T21:16:30.262Z,6.03
2023-01-17T21:19:00.247Z,5.65
2023-01-17T21:21:29.223Z,5.03
2023-01-17T21:23:58.113Z,6.35
2023-01-17T21:26:30.468Z,7.20
2023-01-17T21:29:01.850Z,5.93
